Time;durP1;ratioP1;P1;durP2;ratioP2;P2;SDS_P1;SDS_P2;PMS_P1;PMS_P2;Temp;Humidity;BMP_temperature;BMP_pressure;BME280_temperature;BME280_humidity;BME280_pressure;Samples;Min_cycle;Max_cycle;Signal;HPM_P1;HPM_P2
2023/05/29 00:02:51;;;;;;;8.47;7.47;;;18.60;84.70;;;;;;6299246;28;20231;-64
2023/05/29 00:05:55;;;;;;;8.80;6.57;;;18.50;85.00;;;;;;6304168;28;20230;-65
2023/05/29 00:08:58;;;;;;;10.37;7.43;;;18.50;85.40;;;;;;6304401;28;20241;-64
2023/05/29 00:12:03;;;;;;;6.57;5.90;;;18.50;85.60;;;;;;6302096;28;20227;-64
2023/05/29 00:15:07;;;;;;;9.30;6.00;;;18.40;86.10;;;;;;6300022;28;20237;-64
2023/05/29 00:18:11;;;;;;;8.37;6.60;;;18.40;87.00;;;;;;6303602;28;20317;-64
2023/05/29 00:21:14;;;;;;;7.33;6.50;;;18.40;87.00;;;;;;6304848;28;20235;-64
2023/05/29 00:24:18;;;;;;;10.00;6.70;;;18.30;87.50;;;;;;6305325;28;20245;-65
2023/05/29 00:27:22;;;;;;;6.83;6.10;;;18.20;87.90;;;;;;6305477;28;20236;-63
2023/05/29 00:30:25;;;;;;;9.13;6.50;;;18.20;88.50;;;;;;6304297;28;20227;-63
2023/05/29 00:33:31;;;;;;;7.13;5.90;;;18.10;89.30;;;;;;6303801;28;20585;-64
2023/05/29 00:36:36;;;;;;;6.93;6.23;;;18.10;90.00;;;;;;6305123;28;20665;-64
2023/05/29 00:39:39;;;;;;;6.70;6.00;;;18.10;90.00;;;;;;6303045;28;20231;-64
2023/05/29 00:42:44;;;;;;;10.30;6.30;;;18.10;90.10;;;;;;6302982;28;20226;-64
2023/05/29 00:45:47;;;;;;;7.53;6.50;;;18.10;90.40;;;;;;6303356;28;20253;-64
2023/05/29 00:48:51;;;;;;;7.60;6.00;;;18.10;90.50;;;;;;6303245;28;20372;-64
2023/05/29 00:51:56;;;;;;;6.33;5.73;;;18.20;90.60;;;;;;6303171;28;20221;-64
2023/05/29 00:55:01;;;;;;;13.27;6.80;;;18.20;90.70;;;;;;6304328;28;20222;-65
2023/05/29 00:58:06;;;;;;;6.27;5.60;;;18.20;90.80;;;;;;6311183;28;20644;-65
2023/05/29 01:01:11;;;;;;;9.43;6.03;;;18.20;91.00;;;;;;6303723;28;20231;-64
2023/05/29 01:04:17;;;;;;;7.20;5.90;;;18.10;91.00;;;;;;6303007;28;20250;-62
2023/05/29 01:07:20;;;;;;;7.77;6.10;;;18.10;91.10;;;;;;6297650;28;20554;-63
2023/05/29 01:10:24;;;;;;;7.63;6.73;;;18.10;91.30;;;;;;6302877;28;20245;-63
2023/05/29 01:13:33;;;;;;;8.33;6.97;;;18.10;91.40;;;;;;6314259;28;20244;-64
2023/05/29 01:16:49;;;;;;;9.10;6.70;;;18.10;91.60;;;;;;6309289;28;20233;-64
2023/05/29 01:20:10;;;;;;;8.20;7.20;;;18.00;91.50;;;;;;6302193;28;20227;-64
2023/05/29 01:23:38;;;;;;;9.60;6.10;;;18.00;91.50;;;;;;6302354;28;20690;-64
2023/05/29 01:26:52;;;;;;;7.57;6.50;;;18.00;91.50;;;;;;6299452;28;20226;-64
2023/05/29 01:29:57;;;;;;;9.90;5.90;;;17.90;91.50;;;;;;6301695;28;20820;-64
2023/05/29 01:33:00;;;;;;;6.73;5.70;;;17.90;91.50;;;;;;6301950;28;20237;-64
2023/05/29 01:36:03;;;;;;;8.10;6.67;;;17.70;91.50;;;;;;6301780;28;20230;-64
2023/05/29 01:39:07;;;;;;;7.00;6.30;;;17.60;91.80;;;;;;6301120;28;20306;-63
2023/05/29 01:42:13;;;;;;;10.37;7.00;;;17.50;92.00;;;;;;6301534;28;20237;-63
2023/05/29 01:45:17;;;;;;;8.00;6.20;;;17.40;92.30;;;;;;6301899;28;20682;-63
2023/05/29 01:48:21;;;;;;;6.80;6.20;;;17.30;92.70;;;;;;6301679;28;20465;-63
2023/05/29 01:51:24;;;;;;;7.67;6.00;;;17.30;93.10;;;;;;6301290;28;20568;-64
2023/05/29 01:54:27;;;;;;;7.83;5.93;;;17.20;93.40;;;;;;6301501;28;20527;-63
2023/05/29 01:57:32;;;;;;;9.73;5.70;;;17.20;93.90;;;;;;6301074;28;20465;-63
2023/05/29 02:00:36;;;;;;;8.70;7.37;;;17.20;94.20;;;;;;6300960;28;20465;-63
2023/05/29 02:03:39;;;;;;;9.43;6.67;;;17.10;94.60;;;;;;6301202;28;20524;-63
2023/05/29 02:06:42;;;;;;;9.73;6.70;;;17.00;94.90;;;;;;6301152;28;20477;-63
2023/05/29 02:09:45;;;;;;;6.73;5.90;;;16.90;95.00;;;;;;6296400;28;20495;-63
2023/05/29 02:12:50;;;;;;;8.13;5.93;;;16.90;95.30;;;;;;6300951;28;20904;-64
2023/05/29 02:15:54;;;;;;;7.63;6.20;;;16.90;95.60;;;;;;6300963;28;20445;-63
2023/05/29 02:18:57;;;;;;;12.20;6.00;;;16.80;95.90;;;;;;6300510;28;21114;-63
2023/05/29 02:22:01;;;;;;;8.47;7.33;;;16.80;95.90;;;;;;6300443;28;20878;-63
2023/05/29 02:25:04;;;;;;;11.73;6.53;;;16.80;96.10;;;;;;6300184;28;20442;-63
2023/05/29 02:28:09;;;;;;;7.90;6.30;;;16.70;96.20;;;;;;6300539;28;20465;-63
2023/05/29 02:31:12;;;;;;;6.90;6.30;;;16.70;96.40;;;;;;6299379;28;20470;-63
2023/05/29 02:34:15;;;;;;;9.27;6.60;;;16.60;96.50;;;;;;6300150;28;20465;-63
2023/05/29 02:37:18;;;;;;;7.37;6.63;;;16.60;96.70;;;;;;6299972;28;20465;-63
2023/05/29 02:40:22;;;;;;;8.30;5.87;;;16.60;97.00;;;;;;6298884;28;20479;-63
2023/05/29 02:43:27;;;;;;;7.67;6.87;;;16.50;97.10;;;;;;6299590;28;20784;-63
2023/05/29 02:46:30;;;;;;;8.83;7.63;;;16.40;97.20;;;;;;6302142;28;20480;-64
2023/05/29 02:49:33;;;;;;;8.00;6.40;;;16.40;97.50;;;;;;6301480;28;20489;-64
2023/05/29 02:52:37;;;;;;;8.13;6.37;;;16.40;97.70;;;;;;6300062;28;20489;-63
2023/05/29 02:55:40;;;;;;;7.73;6.00;;;16.40;97.90;;;;;;6300001;28;20476;-63
2023/05/29 02:58:45;;;;;;;10.73;7.33;;;16.30;97.80;;;;;;6299829;28;20491;-63
2023/05/29 03:01:51;;;;;;;8.37;6.70;;;16.30;97.80;;;;;;6300138;28;20552;-63
2023/05/29 03:04:55;;;;;;;7.30;6.60;;;16.30;97.90;;;;;;6299998;28;20560;-63
2023/05/29 03:07:58;;;;;;;6.90;6.10;;;16.20;98.10;;;;;;6300469;28;20464;-63
2023/05/29 03:11:02;;;;;;;7.67;6.37;;;16.20;98.00;;;;;;6299488;28;20469;-64
2023/05/29 03:14:09;;;;;;;10.50;6.60;;;16.20;98.10;;;;;;6299430;28;20465;-64
2023/05/29 03:17:12;;;;;;;7.70;6.67;;;16.10;98.10;;;;;;6299134;28;20578;-63
2023/05/29 03:20:16;;;;;;;9.03;7.27;;;16.10;98.30;;;;;;6299311;28;20472;-63
2023/05/29 03:23:20;;;;;;;7.13;6.17;;;16.10;98.30;;;;;;6299573;28;20479;-63
2023/05/29 03:26:23;;;;;;;7.73;6.57;;;16.00;98.50;;;;;;6299106;28;20461;-63
2023/05/29 03:29:27;;;;;;;8.87;7.10;;;16.10;98.50;;;;;;6298948;28;20465;-63
2023/05/29 03:32:30;;;;;;;6.63;5.93;;;16.00;98.50;;;;;;6299397;28;20469;-63
2023/05/29 03:35:34;;;;;;;6.83;6.10;;;16.00;98.60;;;;;;6299803;28;20552;-63
2023/05/29 03:38:38;;;;;;;7.50;6.80;;;15.90;98.60;;;;;;6299715;28;20468;-63
2023/05/29 03:41:41;;;;;;;7.17;6.40;;;15.90;98.60;;;;;;6299264;28;20480;-63
2023/05/29 03:44:45;;;;;;;7.63;5.60;;;15.90;98.60;;;;;;6300311;28;20465;-65
2023/05/29 03:47:48;;;;;;;8.90;7.10;;;16.00;98.60;;;;;;6311083;28;20551;-64
2023/05/29 03:50:53;;;;;;;7.43;6.43;;;16.00;98.60;;;;;;6304912;28;20547;-64
2023/05/29 03:53:56;;;;;;;8.90;7.17;;;16.00;98.70;;;;;;6304636;28;20939;-63
2023/05/29 03:56:59;;;;;;;8.00;6.70;;;16.00;98.70;;;;;;6303714;28;20479;-63
2023/05/29 04:00:05;;;;;;;9.83;7.07;;;16.00;98.80;;;;;;6304151;28;20469;-63
2023/05/29 04:03:09;;;;;;;8.20;5.60;;;16.00;99.00;;;;;;6303917;28;20472;-63
2023/05/29 04:06:12;;;;;;;7.90;6.47;;;16.10;99.10;;;;;;6303941;28;20484;-64
2023/05/29 04:09:16;;;;;;;8.90;6.23;;;16.20;99.20;;;;;;6303817;28;20473;-63
2023/05/29 04:12:19;;;;;;;10.30;7.33;;;16.20;99.20;;;;;;6303764;28;20476;-63
2023/05/29 04:15:25;;;;;;;8.73;7.20;;;16.30;99.10;;;;;;6303703;28;20490;-63
2023/05/29 04:18:31;;;;;;;7.77;6.63;;;16.30;99.10;;;;;;6303779;28;20465;-64
2023/05/29 04:21:34;;;;;;;7.83;7.10;;;16.40;99.00;;;;;;6294387;28;20569;-63
2023/05/29 04:24:38;;;;;;;7.00;6.30;;;16.50;99.00;;;;;;6303752;28;20479;-63
2023/05/29 04:27:41;;;;;;;8.27;6.77;;;16.60;99.10;;;;;;6303749;28;20606;-63
2023/05/29 04:30:46;;;;;;;8.03;7.10;;;16.60;99.10;;;;;;6303527;28;20793;-63
2023/05/29 04:33:49;;;;;;;8.50;6.70;;;16.70;99.10;;;;;;6303763;28;20453;-63
2023/05/29 04:36:52;;;;;;;7.83;6.73;;;16.80;99.10;;;;;;6303014;28;20912;-63
2023/05/29 04:39:55;;;;;;;7.73;6.10;;;16.90;99.20;;;;;;6303264;28;20780;-63
2023/05/29 04:43:00;;;;;;;7.93;6.73;;;17.00;99.00;;;;;;6303780;28;20445;-63
2023/05/29 04:46:05;;;;;;;8.40;7.53;;;17.10;98.90;;;;;;6303618;28;20763;-63
2023/05/29 04:49:08;;;;;;;10.70;7.53;;;17.20;99.00;;;;;;6303134;28;20515;-63
2023/05/29 04:52:11;;;;;;;10.30;6.83;;;17.30;99.00;;;;;;6303657;28;20480;-63
2023/05/29 04:55:16;;;;;;;9.47;7.17;;;17.40;98.80;;;;;;6303485;28;20760;-63
2023/05/29 04:58:19;;;;;;;9.23;6.60;;;17.50;98.80;;;;;;6302517;28;20484;-63
2023/05/29 05:01:25;;;;;;;10.10;7.60;;;17.70;98.60;;;;;;6302285;28;20480;-63
2023/05/29 05:04:28;;;;;;;10.53;7.03;;;17.80;98.40;;;;;;6302298;28;20534;-63
2023/05/29 05:07:32;;;;;;;7.20;6.50;;;18.00;98.30;;;;;;6302348;28;20480;-63
2023/05/29 05:10:35;;;;;;;7.87;7.10;;;18.10;98.20;;;;;;6302365;28;20484;-63
2023/05/29 05:13:38;;;;;;;10.00;8.10;;;18.20;98.00;;;;;;6302409;28;20227;-63
2023/05/29 05:16:42;;;;;;;7.10;6.37;;;18.40;97.70;;;;;;6302406;28;20669;-63
2023/05/29 05:19:46;;;;;;;8.17;6.83;;;18.60;97.70;;;;;;6302426;28;20245;-64
2023/05/29 05:22:49;;;;;;;9.40;6.83;;;18.80;97.50;;;;;;6298031;28;20223;-65
2023/05/29 05:25:52;;;;;;;8.13;6.83;;;19.00;97.20;;;;;;6302019;28;20227;-63
2023/05/29 05:28:55;;;;;;;9.80;7.20;;;19.00;97.00;;;;;;6301654;28;20284;-63
2023/05/29 05:32:00;;;;;;;8.00;7.23;;;19.10;96.60;;;;;;6302046;28;20245;-63
2023/05/29 05:35:04;;;;;;;11.10;7.73;;;19.30;96.70;;;;;;6301719;28;20246;-63
2023/05/29 05:38:07;;;;;;;9.00;7.37;;;19.40;96.30;;;;;;6301915;28;20223;-63
2023/05/29 05:41:10;;;;;;;10.60;9.50;;;19.50;96.10;;;;;;6301340;28;20264;-63
2023/05/29 05:44:14;;;;;;;9.07;6.90;;;19.60;95.90;;;;;;6301695;28;20227;-63
2023/05/29 05:47:18;;;;;;;11.63;7.40;;;19.70;95.80;;;;;;6301983;28;20590;-63
2023/05/29 05:50:21;;;;;;;10.07;7.23;;;19.90;95.40;;;;;;6301387;28;20230;-63
2023/05/29 05:53:25;;;;;;;9.13;7.43;;;19.90;95.00;;;;;;6301665;28;20309;-64
2023/05/29 05:56:28;;;;;;;9.40;7.20;;;20.00;95.20;;;;;;6301950;28;20234;-63
2023/05/29 05:59:31;;;;;;;7.60;6.90;;;20.20;94.90;;;;;;6301111;28;20238;-63
2023/05/29 06:02:36;;;;;;;8.80;7.90;;;20.30;94.30;;;;;;6301326;28;20651;-63
2023/05/29 06:05:40;;;;;;;9.50;7.40;;;20.50;94.50;;;;;;6301269;28;20230;-63
2023/05/29 06:08:44;;;;;;;10.00;7.17;;;20.70;94.30;;;;;;6300965;28;20698;-64
2023/05/29 06:11:48;;;;;;;8.33;7.20;;;21.00;94.00;;;;;;6301507;28;20237;-64
2023/05/29 06:14:52;;;;;;;11.43;9.10;;;21.30;93.50;;;;;;6300985;28;20551;-64
2023/05/29 06:17:56;;;;;;;8.57;6.70;;;21.30;92.70;;;;;;6301577;28;20226;-64
2023/05/29 06:21:00;;;;;;;6.87;6.17;;;21.40;92.70;;;;;;6307421;28;20223;-64
2023/05/29 06:24:04;;;;;;;7.40;6.70;;;21.40;92.50;;;;;;6312973;28;20296;-64
2023/05/29 06:27:08;;;;;;;13.80;7.97;;;21.50;92.20;;;;;;6299283;28;20233;-64
2023/05/29 06:30:12;;;;;;;8.20;7.40;;;21.60;92.70;;;;;;6276006;28;20249;-64
2023/05/29 06:33:17;;;;;;;8.57;7.60;;;22.40;92.00;;;;;;6293911;28;20227;-64
2023/05/29 06:36:20;;;;;;;7.07;6.37;;;23.30;90.70;;;;;;6300004;28;20215;-64
2023/05/29 06:39:23;;;;;;;6.60;6.00;;;24.50;88.50;;;;;;6299865;28;20238;-64
2023/05/29 06:42:27;;;;;;;7.60;6.27;;;25.50;85.30;;;;;;6301453;28;20313;-64
2023/05/29 06:45:30;;;;;;;7.40;6.70;;;26.50;80.20;;;;;;6303153;28;20226;-64
2023/05/29 06:48:35;;;;;;;8.27;7.30;;;26.80;76.00;;;;;;6300340;28;20234;-64
2023/05/29 06:51:38;;;;;;;7.70;7.00;;;27.60;73.40;;;;;;6300344;28;20226;-66
2023/05/29 06:54:42;;;;;;;12.23;6.80;;;28.30;70.50;;;;;;6300276;28;20240;-64
2023/05/29 06:57:45;;;;;;;8.10;7.00;;;29.00;69.10;;;;;;6300546;28;20669;-65
2023/05/29 07:00:48;;;;;;;9.83;7.30;;;29.60;64.70;;;;;;6298641;28;20290;-67
2023/05/29 07:03:55;;;;;;;8.67;7.00;;;30.40;62.50;;;;;;6298821;28;20536;-66
2023/05/29 07:06:58;;;;;;;10.37;7.00;;;30.70;58.90;;;;;;6298296;28;20622;-64
2023/05/29 07:10:02;;;;;;;10.65;7.35;;;30.80;59.00;;;;;;6298653;28;20230;-65
2023/05/29 07:13:06;;;;;;;7.18;6.15;;;31.30;57.40;;;;;;6297964;28;20222;-69
2023/05/29 07:16:09;;;;;;;8.00;7.18;;;31.80;53.90;;;;;;6298398;28;20226;-66
2023/05/29 07:19:29;;;;;;;7.22;6.10;;;32.10;49.40;;;;;;6299324;28;20408;-66
2023/05/29 07:22:32;;;;;;;8.13;7.32;;;32.80;49.30;;;;;;6299273;28;20542;-65
2023/05/29 07:25:35;;;;;;;6.75;6.15;;;33.20;48.10;;;;;;6299388;28;20312;-65
2023/05/29 07:28:38;;;;;;;7.43;6.72;;;33.80;45.00;;;;;;6285727;28;20240;-65
2023/05/29 07:31:42;;;;;;;7.25;6.60;;;34.50;42.60;;;;;;6298399;28;20229;-65
2023/05/29 07:34:46;;;;;;;7.40;6.68;;;35.20;39.30;;;;;;6298907;28;20245;-65
2023/05/29 07:37:52;;;;;;;8.93;6.53;;;35.50;37.20;;;;;;6299488;28;20283;-65
2023/05/29 07:40:55;;;;;;;7.53;6.68;;;35.70;34.80;;;;;;6299084;28;20300;-66
2023/05/29 07:43:59;;;;;;;7.05;6.15;;;35.80;33.20;;;;;;6299424;28;20230;-66
2023/05/29 07:47:02;;;;;;;6.18;5.63;;;35.40;32.90;;;;;;6299605;28;20684;-66
2023/05/29 07:50:07;;;;;;;6.97;6.18;;;35.50;32.90;;;;;;6299231;28;20713;-65
2023/05/29 07:53:11;;;;;;;8.40;6.60;;;35.70;32.50;;;;;;6299494;28;20367;-66
2023/05/29 07:56:14;;;;;;;8.48;5.97;;;35.20;33.40;;;;;;6299789;28;20229;-65
2023/05/29 07:59:17;;;;;;;6.20;5.65;;;34.90;33.00;;;;;;6298368;28;20580;-65
2023/05/29 08:02:21;;;;;;;6.95;6.18;;;34.50;33.50;;;;;;6299186;28;20221;-65
2023/05/29 08:05:26;;;;;;;10.63;7.18;;;33.30;33.60;;;;;;6299255;28;20700;-65
2023/05/29 08:08:30;;;;;;;7.05;6.45;;;32.10;36.10;;;;;;6299266;28;20226;-65
2023/05/29 08:11:33;;;;;;;9.00;7.13;;;31.40;36.60;;;;;;6298916;28;20279;-65
2023/05/29 08:14:36;;;;;;;7.43;6.63;;;30.60;38.00;;;;;;6298736;28;20230;-65
2023/05/29 08:17:39;;;;;;;7.47;6.10;;;30.20;40.50;;;;;;6299323;28;20566;-65
2023/05/29 08:20:44;;;;;;;7.97;7.28;;;29.80;39.60;;;;;;6298851;28;20230;-65
2023/05/29 08:23:47;;;;;;;6.47;5.87;;;29.10;40.70;;;;;;6299323;28;20300;-65
2023/05/29 08:26:51;;;;;;;7.87;7.07;;;28.80;42.20;;;;;;6299062;28;20307;-65
2023/05/29 08:29:54;;;;;;;7.40;5.90;;;28.80;42.40;;;;;;6298813;28;20563;-65
2023/05/29 08:32:57;;;;;;;7.67;6.70;;;29.00;43.20;;;;;;6289613;28;20701;-65
2023/05/29 08:36:02;;;;;;;7.97;7.27;;;29.00;42.40;;;;;;6298620;28;20245;-65
2023/05/29 08:39:05;;;;;;;7.60;6.37;;;28.90;43.50;;;;;;6301872;28;20236;-65
2023/05/29 08:42:14;;;;;;;7.67;6.87;;;28.70;43.50;;;;;;6303165;28;20252;-65
2023/05/29 08:45:23;;;;;;;7.77;6.97;;;28.60;43.60;;;;;;6303781;28;20233;-65
2023/05/29 08:48:27;;;;;;;8.97;6.80;;;28.50;44.20;;;;;;6303937;28;20226;-65
2023/05/29 08:51:36;;;;;;;8.00;6.67;;;28.50;44.50;;;;;;6302987;28;20313;-64
2023/05/29 08:54:40;;;;;;;6.80;5.93;;;28.30;44.10;;;;;;6303087;28;20367;-64
2023/05/29 08:57:44;;;;;;;10.60;6.50;;;28.30;45.50;;;;;;6302984;28;20507;-64
2023/05/29 09:00:48;;;;;;;10.60;7.10;;;28.40;44.00;;;;;;6303073;28;20234;-66
2023/05/29 09:03:51;;;;;;;7.50;6.80;;;28.10;44.30;;;;;;6305422;28;20214;-65
2023/05/29 09:06:56;;;;;;;8.13;6.63;;;27.90;45.50;;;;;;6307532;28;20221;-64
2023/05/29 09:10:00;;;;;;;6.97;6.37;;;27.90;44.90;;;;;;6303262;28;20670;-64
2023/05/29 09:13:03;;;;;;;8.00;7.20;;;28.00;44.80;;;;;;6302737;28;20222;-64
2023/05/29 09:16:08;;;;;;;7.97;7.17;;;28.00;44.10;;;;;;6302354;28;20293;-65
2023/05/29 09:19:11;;;;;;;9.10;7.07;;;28.10;44.30;;;;;;6302080;28;20238;-66
2023/05/29 09:22:17;;;;;;;8.30;7.50;;;28.00;44.10;;;;;;6302826;28;20367;-64
2023/05/29 09:25:22;;;;;;;7.70;7.07;;;28.00;44.10;;;;;;6302808;28;20736;-66
2023/05/29 09:28:28;;;;;;;6.80;6.17;;;28.30;45.60;;;;;;6303594;28;20236;-65
2023/05/29 09:31:31;;;;;;;11.50;7.00;;;28.30;43.60;;;;;;6302206;28;20309;-65
2023/05/29 09:34:35;;;;;;;8.67;7.80;;;28.40;43.40;;;;;;6301691;28;20608;-65
2023/05/29 09:37:44;;;;;;;7.37;6.60;;;28.40;43.40;;;;;;6301620;28;20232;-65
2023/05/29 09:40:47;;;;;;;9.50;7.43;;;28.40;43.60;;;;;;6301759;28;20242;-65
2023/05/29 09:43:51;;;;;;;11.03;8.70;;;28.40;44.60;;;;;;6301791;28;20230;-65
2023/05/29 09:46:59;;;;;;;8.23;7.53;;;28.60;44.60;;;;;;6301353;28;20661;-65
2023/05/29 09:50:02;;;;;;;8.10;7.30;;;28.50;44.60;;;;;;6300117;28;20257;-65
2023/05/29 09:53:18;;;;;;;8.30;7.50;;;28.60;44.10;;;;;;6301584;28;20236;-65
2023/05/29 09:56:24;;;;;;;11.23;7.70;;;28.50;43.70;;;;;;6301070;28;20234;-65
2023/05/29 09:59:28;;;;;;;8.40;6.83;;;28.20;44.50;;;;;;6301442;28;20234;-64
2023/05/29 10:02:33;;;;;;;10.97;7.90;;;28.30;44.40;;;;;;6301194;28;20676;-64
2023/05/29 10:05:38;;;;;;;7.80;6.80;;;28.40;43.80;;;;;;6301439;28;20230;-65
2023/05/29 10:08:48;;;;;;;7.83;7.10;;;28.50;43.80;;;;;;6301510;28;20226;-65
2023/05/29 10:11:57;;;;;;;7.70;6.90;;;28.60;44.00;;;;;;6301340;28;20319;-65
2023/05/29 10:15:02;;;;;;;8.67;7.87;;;28.70;43.00;;;;;;6300841;28;20383;-65
2023/05/29 10:18:12;;;;;;;9.33;6.73;;;28.40;42.90;;;;;;6301168;28;20226;-65
2023/05/29 10:21:16;;;;;;;8.60;7.33;;;28.50;42.20;;;;;;6300753;28;20230;-65
2023/05/29 10:24:21;;;;;;;8.90;8.07;;;28.50;43.40;;;;;;6300928;28;20631;-65
2023/05/29 10:27:25;;;;;;;9.47;8.53;;;28.50;43.30;;;;;;6300536;28;20222;-65
2023/05/29 10:30:35;;;;;;;8.87;6.93;;;28.40;43.70;;;;;;6300515;28;20238;-65
2023/05/29 10:33:52;;;;;;;7.60;6.90;;;28.20;44.10;;;;;;6300465;28;20325;-65
2023/05/29 10:37:07;;;;;;;9.93;7.50;;;27.50;44.90;;;;;;6291669;28;20198;-65
2023/05/29 10:40:12;;;;;;;8.00;7.30;;;27.30;45.30;;;;;;6300322;28;20244;-65
2023/05/29 10:43:33;;;;;;;7.80;6.80;;;27.30;45.20;;;;;;6300444;28;20257;-65
2023/05/29 10:47:08;;;;;;;9.73;6.63;;;27.40;44.50;;;;;;6300536;28;20237;-65
2023/05/29 10:50:12;;;;;;;7.63;6.57;;;27.30;43.80;;;;;;6301526;28;20262;-65
2023/05/29 10:53:16;;;;;;;7.70;6.90;;;27.50;46.40;;;;;;6301240;28;20313;-65
2023/05/29 10:56:29;;;;;;;8.63;6.67;;;27.50;46.50;;;;;;6300775;28;20234;-65
2023/05/29 10:59:37;;;;;;;8.93;7.60;;;27.60;43.60;;;;;;6300399;28;20241;-64
2023/05/29 11:02:42;;;;;;;8.30;7.50;;;27.60;44.20;;;;;;6300779;28;20244;-65
2023/05/29 11:05:57;;;;;;;9.67;8.03;;;27.60;43.70;;;;;;6300057;28;20678;-63
2023/05/29 11:09:07;;;;;;;8.47;7.30;;;27.90;43.60;;;;;;6300035;28;20230;-65
2023/05/29 11:12:25;;;;;;;9.03;7.53;;;27.40;44.30;;;;;;6299720;28;20269;-64
2023/05/29 11:15:28;;;;;;;8.90;8.10;;;27.20;44.30;;;;;;6299613;28;20738;-66
2023/05/29 11:18:32;;;;;;;7.43;6.27;;;27.10;44.30;;;;;;6299987;28;20226;-65
2023/05/29 11:21:47;;;;;;;8.13;7.33;;;27.40;42.70;;;;;;6299922;28;20234;-64
2023/05/29 11:24:52;;;;;;;8.10;7.30;;;27.70;41.80;;;;;;6299377;28;20288;-64
2023/05/29 11:27:57;;;;;;;7.63;6.93;;;27.90;41.70;;;;;;6299674;28;20208;-64
2023/05/29 11:31:04;;;;;;;7.87;7.17;;;28.10;41.10;;;;;;6299471;28;20735;-64
2023/05/29 11:34:11;;;;;;;7.77;6.97;;;28.30;41.00;;;;;;6299991;28;20297;-66
2023/05/29 11:37:15;;;;;;;7.53;6.83;;;28.50;41.90;;;;;;6301539;28;20236;-64
2023/05/29 11:40:19;;;;;;;7.70;6.90;;;28.50;44.30;;;;;;6302438;28;20561;-64
2023/05/29 11:43:23;;;;;;;8.87;7.23;;;28.50;42.30;;;;;;6299655;28;20241;-65
2023/05/29 11:46:28;;;;;;;9.37;7.33;;;28.50;39.40;;;;;;6299358;28;20237;-65
2023/05/29 11:49:33;;;;;;;8.13;7.30;;;28.10;39.20;;;;;;6299030;28;20314;-65
2023/05/29 11:52:46;;;;;;;10.57;7.27;;;27.80;39.70;;;;;;6299782;28;20242;-65
2023/05/29 11:55:49;;;;;;;7.67;6.90;;;27.70;39.40;;;;;;6298897;28;20582;-65
2023/05/29 11:58:56;;;;;;;8.33;7.03;;;28.00;43.10;;;;;;6299328;28;20240;-65
2023/05/29 12:02:00;;;;;;;7.60;6.90;;;28.20;39.50;;;;;;6299392;28;20230;-65
2023/05/29 12:05:04;;;;;;;7.07;6.47;;;28.30;40.50;;;;;;6299408;28;20243;-64
2023/05/29 12:08:10;;;;;;;7.30;6.60;;;28.30;38.80;;;;;;6298889;28;20678;-65
2023/05/29 12:11:13;;;;;;;7.67;6.90;;;28.20;37.10;;;;;;6298663;28;20240;-65
2023/05/29 12:14:17;;;;;;;7.90;6.50;;;28.20;38.80;;;;;;6302916;28;20265;-65
2023/05/29 12:17:21;;;;;;;7.67;6.90;;;28.20;36.40;;;;;;6303901;28;20360;-64
2023/05/29 12:20:27;;;;;;;7.53;6.73;;;28.10;39.10;;;;;;6303546;28;20235;-64
2023/05/29 12:23:31;;;;;;;7.57;6.83;;;28.30;39.20;;;;;;6303464;28;20312;-64
2023/05/29 12:26:34;;;;;;;7.27;6.50;;;28.40;37.50;;;;;;6303438;28;20222;-65
2023/05/29 12:29:39;;;;;;;7.87;7.17;;;28.40;41.40;;;;;;6303454;28;20234;-64
2023/05/29 12:32:43;;;;;;;8.27;7.47;;;28.00;36.90;;;;;;6304173;28;20279;-64
2023/05/29 12:35:47;;;;;;;9.33;7.53;;;28.00;38.20;;;;;;6303367;28;20313;-65
2023/05/29 12:38:52;;;;;;;7.80;7.00;;;28.10;38.10;;;;;;6303261;28;20226;-64
2023/05/29 12:41:55;;;;;;;7.53;6.43;;;28.10;37.20;;;;;;6302624;28;20237;-66
2023/05/29 12:45:04;;;;;;;7.53;6.40;;;27.70;36.40;;;;;;6303484;28;20229;-64
2023/05/29 12:48:09;;;;;;;8.43;7.37;;;27.50;39.10;;;;;;6302711;28;20432;-65
2023/05/29 12:51:12;;;;;;;7.40;6.10;;;27.60;36.30;;;;;;6303248;28;20242;-65
2023/05/29 12:54:17;;;;;;;7.07;6.37;;;27.60;37.20;;;;;;6304013;28;20230;-64
2023/05/29 12:57:20;;;;;;;7.20;6.47;;;27.70;39.20;;;;;;6303100;28;20280;-64
2023/05/29 13:00:25;;;;;;;6.53;5.93;;;27.30;37.20;;;;;;6302785;28;20670;-65
2023/05/29 13:03:28;;;;;;;7.40;6.43;;;27.20;37.00;;;;;;6302827;28;20606;-65
2023/05/29 13:06:31;;;;;;;7.80;7.03;;;27.30;38.80;;;;;;6302532;28;20230;-65
2023/05/29 13:09:34;;;;;;;11.03;6.77;;;27.50;39.00;;;;;;6302298;28;20672;-65
2023/05/29 13:12:38;;;;;;;6.70;6.10;;;27.60;35.80;;;;;;6302249;28;20236;-65
2023/05/29 13:15:42;;;;;;;7.20;6.50;;;27.40;36.10;;;;;;6302503;28;20305;-65
2023/05/29 13:18:45;;;;;;;8.07;6.43;;;27.40;40.40;;;;;;6302367;28;20222;-65
2023/05/29 13:21:49;;;;;;;7.77;7.07;;;27.40;36.60;;;;;;6302115;28;20264;-65
2023/05/29 13:24:52;;;;;;;6.90;6.20;;;27.30;37.40;;;;;;6301925;28;20226;-65
2023/05/29 13:27:55;;;;;;;7.73;6.50;;;27.40;37.80;;;;;;6302614;28;20212;-66
2023/05/29 13:31:00;;;;;;;9.03;6.83;;;27.40;34.80;;;;;;6301864;28;20541;-65
2023/05/29 13:34:04;;;;;;;8.20;6.80;;;27.30;37.80;;;;;;6301938;28;20214;-65
2023/05/29 13:37:07;;;;;;;8.53;7.63;;;27.30;37.50;;;;;;6301826;28;20654;-65
2023/05/29 13:40:13;;;;;;;9.17;6.80;;;27.30;33.80;;;;;;6301540;28;20238;-65
2023/05/29 13:43:17;;;;;;;7.10;6.40;;;27.00;34.90;;;;;;6302292;28;20387;-65
2023/05/29 13:46:26;;;;;;;7.67;6.97;;;27.00;37.60;;;;;;6301875;28;20226;-65
2023/05/29 13:49:32;;;;;;;8.00;6.47;;;27.10;38.40;;;;;;6301818;28;20519;-65
2023/05/29 13:52:36;;;;;;;8.27;6.80;;;27.10;39.20;;;;;;6301401;28;20565;-65
2023/05/29 13:55:41;;;;;;;9.40;7.00;;;27.20;34.70;;;;;;6301576;28;20252;-65
2023/05/29 13:58:44;;;;;;;7.67;6.03;;;27.40;34.40;;;;;;6301431;28;20230;-65
2023/05/29 14:01:49;;;;;;;7.50;6.53;;;27.20;33.70;;;;;;6301988;28;20248;-65
2023/05/29 14:04:52;;;;;;;6.93;6.33;;;27.30;35.10;;;;;;6301712;28;20241;-65
2023/05/29 14:07:55;;;;;;;7.97;7.20;;;27.40;33.80;;;;;;6301167;28;20305;-65
2023/05/29 14:10:58;;;;;;;8.50;6.43;;;27.30;36.00;;;;;;6301258;28;20234;-66
2023/05/29 14:14:02;;;;;;;7.50;6.73;;;27.30;33.90;;;;;;6301207;28;20278;-64
2023/05/29 14:17:07;;;;;;;7.33;6.67;;;27.30;38.50;;;;;;6302012;28;20238;-65
2023/05/29 14:20:11;;;;;;;6.17;5.67;;;27.40;35.60;;;;;;6302504;28;20244;-65
2023/05/29 14:23:15;;;;;;;6.40;5.80;;;27.40;37.40;;;;;;6301567;28;20585;-65
2023/05/29 14:26:18;;;;;;;7.67;6.97;;;27.10;36.30;;;;;;6300481;28;20751;-65
2023/05/29 14:29:22;;;;;;;8.03;6.90;;;27.10;36.90;;;;;;6301010;28;20279;-65
2023/05/29 14:32:26;;;;;;;6.67;5.50;;;27.10;35.70;;;;;;6301692;28;20232;-65
2023/05/29 14:35:30;;;;;;;5.90;5.40;;;26.90;35.90;;;;;;6300859;28;20230;-65
2023/05/29 14:38:33;;;;;;;7.03;6.33;;;27.00;36.30;;;;;;6301186;28;20225;-65
2023/05/29 14:41:36;;;;;;;7.43;6.60;;;26.80;36.30;;;;;;6300516;28;20237;-64
2023/05/29 14:44:39;;;;;;;7.10;6.40;;;26.60;36.80;;;;;;6300775;28;20234;-64
2023/05/29 14:47:44;;;;;;;8.50;6.90;;;26.80;37.60;;;;;;6301902;28;20307;-65
2023/05/29 14:50:47;;;;;;;6.93;6.30;;;26.70;38.50;;;;;;6302184;28;20226;-65
2023/05/29 14:53:50;;;;;;;7.80;6.50;;;26.80;37.60;;;;;;6301347;28;20252;-65
2023/05/29 14:56:54;;;;;;;8.33;7.30;;;26.90;37.50;;;;;;6302250;28;20249;-65
2023/05/29 14:59:57;;;;;;;7.43;6.73;;;26.90;36.30;;;;;;6301603;28;20336;-64
2023/05/29 15:03:02;;;;;;;7.20;6.50;;;26.90;36.10;;;;;;6299871;28;20324;-64
2023/05/29 15:06:07;;;;;;;6.60;5.90;;;26.70;35.70;;;;;;6296092;28;20211;-65
2023/05/29 15:09:10;;;;;;;8.70;7.50;;;26.60;37.00;;;;;;6297328;28;20218;-64
2023/05/29 15:12:13;;;;;;;6.97;6.27;;;26.70;38.00;;;;;;6297630;28;20313;-66
2023/05/29 15:15:17;;;;;;;10.17;6.60;;;26.70;37.10;;;;;;6298609;28;20232;-66
2023/05/29 15:18:21;;;;;;;6.87;6.17;;;26.80;36.60;;;;;;6297569;28;20391;-65
2023/05/29 15:21:25;;;;;;;7.17;6.47;;;26.70;36.60;;;;;;6298027;28;20316;-66
2023/05/29 15:24:28;;;;;;;8.00;6.53;;;26.60;35.60;;;;;;6295866;28;20236;-65
2023/05/29 15:27:32;;;;;;;8.20;5.90;;;26.50;35.80;;;;;;6299702;28;20229;-68
2023/05/29 15:30:35;;;;;;;7.20;6.50;;;26.50;37.50;;;;;;6298219;28;20260;-65
2023/05/29 15:33:40;;;;;;;6.83;6.13;;;26.70;36.20;;;;;;6298746;28;20244;-68
2023/05/29 15:36:43;;;;;;;7.03;5.90;;;26.80;36.10;;;;;;6298040;28;20237;-67
2023/05/29 15:39:47;;;;;;;9.90;5.87;;;26.80;35.80;;;;;;6297834;28;20248;-66
2023/05/29 15:42:50;;;;;;;7.50;6.70;;;26.70;35.50;;;;;;6298720;28;20288;-66
2023/05/29 15:45:53;;;;;;;6.73;6.03;;;26.50;35.60;;;;;;6298554;28;20232;-67
2023/05/29 15:48:58;;;;;;;6.50;5.90;;;26.20;36.40;;;;;;6304644;28;20238;-67
2023/05/29 15:52:01;;;;;;;9.60;7.20;;;26.00;37.40;;;;;;6304601;28;20214;-65
2023/05/29 15:55:05;;;;;;;6.67;6.00;;;25.90;36.70;;;;;;6304070;28;20206;-65
2023/05/29 15:58:08;;;;;;;6.47;5.87;;;26.00;37.00;;;;;;6303427;28;20236;-66
2023/05/29 16:01:12;;;;;;;6.80;6.03;;;26.00;36.50;;;;;;6303779;28;21191;-65